sensor_id;sensor_type;location;lat;lon;timestamp;P1;durP1;ratioP1;P2;durP2;ratioP2
46090;SDS011;31826;53.572;10.170;2022-11-20T00:01:06;7.15;;;2.92;;
46090;SDS011;31826;53.572;10.170;2022-11-20T00:03:40;6.35;;;2.50;;
46090;SDS011;31826;53.572;10.170;2022-11-20T00:06:07;8.30;;;2.63;;
46090;SDS011;31826;53.572;10.170;2022-11-20T00:08:35;6.68;;;2.72;;
46090;SDS011;31826;53.572;10.170;2022-11-20T00:11:08;5.75;;;2.40;;
46090;SDS011;31826;53.572;10.170;2022-11-20T00:13:37;6.35;;;2.88;;
46090;SDS011;31826;53.572;10.170;2022-11-20T00:16:03;7.75;;;2.95;;
46090;SDS011;31826;53.572;10.170;2022-11-20T00:18:30;7.38;;;3.03;;
46090;SDS011;31826;53.572;10.170;2022-11-20T00:21:05;9.55;;;2.78;;
46090;SDS011;31826;53.572;10.170;2022-11-20T00:23:33;5.97;;;2.63;;
46090;SDS011;31826;53.572;10.170;2022-11-20T00:26:09;7.68;;;2.80;;
46090;SDS011;31826;53.572;10.170;2022-11-20T00:28:36;8.48;;;2.85;;
46090;SDS011;31826;53.572;10.170;2022-11-20T00:31:09;7.03;;;3.20;;
46090;SDS011;31826;53.572;10.170;2022-11-20T00:33:36;7.82;;;3.00;;
46090;SDS011;31826;53.572;10.170;2022-11-20T00:36:03;7.22;;;2.85;;
46090;SDS011;31826;53.572;10.170;2022-11-20T00:38:31;6.75;;;2.90;;
46090;SDS011;31826;53.572;10.170;2022-11-20T00:40:58;7.35;;;3.10;;
46090;SDS011;31826;53.572;10.170;2022-11-20T00:43:25;6.82;;;2.88;;
46090;SDS011;31826;53.572;10.170;2022-11-20T00:45:55;6.70;;;2.70;;
46090;SDS011;31826;53.572;10.170;2022-11-20T00:48:26;6.93;;;2.90;;
46090;SDS011;31826;53.572;10.170;2022-11-20T00:50:52;7.78;;;2.65;;
46090;SDS011;31826;53.572;10.170;2022-11-20T00:53:19;7.25;;;2.85;;
46090;SDS011;31826;53.572;10.170;2022-11-20T00:58:19;6.63;;;2.83;;
46090;SDS011;31826;53.572;10.170;2022-11-20T01:00:45;6.95;;;2.83;;
46090;SDS011;31826;53.572;10.170;2022-11-20T01:03:11;5.50;;;2.70;;
46090;SDS011;31826;53.572;10.170;2022-11-20T01:05:37;6.47;;;2.70;;
46090;SDS011;31826;53.572;10.170;2022-11-20T01:08:02;6.75;;;2.85;;
46090;SDS011;31826;53.572;10.170;2022-11-20T01:10:28;6.97;;;2.97;;
46090;SDS011;31826;53.572;10.170;2022-11-20T01:12:54;7.97;;;2.93;;
46090;SDS011;31826;53.572;10.170;2022-11-20T01:15:38;6.55;;;3.00;;
46090;SDS011;31826;53.572;10.170;2022-11-20T01:18:04;5.97;;;2.80;;
46090;SDS011;31826;53.572;10.170;2022-11-20T01:20:33;5.93;;;2.88;;
46090;SDS011;31826;53.572;10.170;2022-11-20T01:23:00;6.83;;;2.90;;
46090;SDS011;31826;53.572;10.170;2022-11-20T01:25:27;7.78;;;2.70;;
46090;SDS011;31826;53.572;10.170;2022-11-20T01:27:53;10.10;;;3.80;;
46090;SDS011;31826;53.572;10.170;2022-11-20T01:30:18;7.00;;;2.93;;
46090;SDS011;31826;53.572;10.170;2022-11-20T01:32:44;6.97;;;3.03;;
46090;SDS011;31826;53.572;10.170;2022-11-20T01:35:10;6.60;;;2.70;;
46090;SDS011;31826;53.572;10.170;2022-11-20T01:37:35;7.72;;;2.95;;
46090;SDS011;31826;53.572;10.170;2022-11-20T01:40:01;6.07;;;2.63;;
46090;SDS011;31826;53.572;10.170;2022-11-20T01:42:28;6.47;;;2.60;;
46090;SDS011;31826;53.572;10.170;2022-11-20T01:48:12;7.88;;;2.88;;
46090;SDS011;31826;53.572;10.170;2022-11-20T01:50:38;8.52;;;3.00;;
46090;SDS011;31826;53.572;10.170;2022-11-20T01:53:07;6.40;;;2.70;;
46090;SDS011;31826;53.572;10.170;2022-11-20T01:55:36;6.32;;;3.03;;
46090;SDS011;31826;53.572;10.170;2022-11-20T01:58:08;10.55;;;3.00;;
46090;SDS011;31826;53.572;10.170;2022-11-20T02:00:34;6.40;;;3.13;;
46090;SDS011;31826;53.572;10.170;2022-11-20T02:03:02;6.43;;;3.80;;
46090;SDS011;31826;53.572;10.170;2022-11-20T02:08:07;5.68;;;2.78;;
46090;SDS011;31826;53.572;10.170;2022-11-20T02:10:32;6.57;;;3.00;;
46090;SDS011;31826;53.572;10.170;2022-11-20T02:13:00;9.25;;;3.33;;
46090;SDS011;31826;53.572;10.170;2022-11-20T02:15:45;7.00;;;2.72;;
46090;SDS011;31826;53.572;10.170;2022-11-20T02:18:11;8.40;;;3.75;;
46090;SDS011;31826;53.572;10.170;2022-11-20T02:20:40;8.25;;;3.40;;
46090;SDS011;31826;53.572;10.170;2022-11-20T02:23:12;8.67;;;3.50;;
46090;SDS011;31826;53.572;10.170;2022-11-20T02:25:42;9.63;;;3.40;;
46090;SDS011;31826;53.572;10.170;2022-11-20T02:28:08;7.13;;;3.10;;
46090;SDS011;31826;53.572;10.170;2022-11-20T02:30:35;7.85;;;3.25;;
46090;SDS011;31826;53.572;10.170;2022-11-20T02:33:01;6.80;;;3.15;;
46090;SDS011;31826;53.572;10.170;2022-11-20T02:37:53;8.00;;;3.50;;
46090;SDS011;31826;53.572;10.170;2022-11-20T02:40:20;6.95;;;3.30;;
46090;SDS011;31826;53.572;10.170;2022-11-20T02:42:46;6.22;;;3.58;;
46090;SDS011;31826;53.572;10.170;2022-11-20T02:45:13;8.23;;;3.47;;
46090;SDS011;31826;53.572;10.170;2022-11-20T02:47:38;6.57;;;3.28;;
46090;SDS011;31826;53.572;10.170;2022-11-20T02:50:04;8.47;;;3.40;;
46090;SDS011;31826;53.572;10.170;2022-11-20T02:52:31;6.70;;;2.95;;
46090;SDS011;31826;53.572;10.170;2022-11-20T02:54:56;7.65;;;3.25;;
46090;SDS011;31826;53.572;10.170;2022-11-20T02:57:22;8.60;;;3.30;;
46090;SDS011;31826;53.572;10.170;2022-11-20T02:59:48;7.32;;;3.38;;
46090;SDS011;31826;53.572;10.170;2022-11-20T03:02:14;7.35;;;3.30;;
46090;SDS011;31826;53.572;10.170;2022-11-20T03:04:39;8.68;;;3.63;;
46090;SDS011;31826;53.572;10.170;2022-11-20T03:07:05;7.68;;;3.22;;
46090;SDS011;31826;53.572;10.170;2022-11-20T03:09:32;5.95;;;3.05;;
46090;SDS011;31826;53.572;10.170;2022-11-20T03:11:58;8.35;;;3.13;;
46090;SDS011;31826;53.572;10.170;2022-11-20T03:14:23;8.27;;;3.42;;
46090;SDS011;31826;53.572;10.170;2022-11-20T03:16:49;5.35;;;2.65;;
46090;SDS011;31826;53.572;10.170;2022-11-20T03:19:15;9.00;;;3.30;;
46090;SDS011;31826;53.572;10.170;2022-11-20T03:21:40;5.93;;;2.78;;
46090;SDS011;31826;53.572;10.170;2022-11-20T03:24:06;6.97;;;3.20;;
46090;SDS011;31826;53.572;10.170;2022-11-20T03:26:32;6.80;;;3.17;;
46090;SDS011;31826;53.572;10.170;2022-11-20T03:28:59;6.67;;;3.00;;
46090;SDS011;31826;53.572;10.170;2022-11-20T03:31:27;6.57;;;3.00;;
46090;SDS011;31826;53.572;10.170;2022-11-20T03:33:57;6.35;;;2.88;;
46090;SDS011;31826;53.572;10.170;2022-11-20T03:36:24;10.52;;;3.45;;
46090;SDS011;31826;53.572;10.170;2022-11-20T03:38:52;6.45;;;3.17;;
46090;SDS011;31826;53.572;10.170;2022-11-20T03:41:20;7.53;;;3.05;;
46090;SDS011;31826;53.572;10.170;2022-11-20T03:43:53;6.65;;;3.10;;
46090;SDS011;31826;53.572;10.170;2022-11-20T03:46:21;6.73;;;2.97;;
46090;SDS011;31826;53.572;10.170;2022-11-20T03:48:48;8.68;;;3.25;;
46090;SDS011;31826;53.572;10.170;2022-11-20T03:51:15;8.88;;;3.50;;
46090;SDS011;31826;53.572;10.170;2022-11-20T03:53:43;7.90;;;3.13;;
46090;SDS011;31826;53.572;10.170;2022-11-20T03:56:11;7.88;;;3.50;;
46090;SDS011;31826;53.572;10.170;2022-11-20T03:58:40;7.07;;;2.85;;
46090;SDS011;31826;53.572;10.170;2022-11-20T04:01:16;8.65;;;3.60;;
46090;SDS011;31826;53.572;10.170;2022-11-20T04:03:44;7.65;;;2.97;;
46090;SDS011;31826;53.572;10.170;2022-11-20T04:06:20;8.00;;;3.05;;
46090;SDS011;31826;53.572;10.170;2022-11-20T04:08:47;7.68;;;3.38;;
46090;SDS011;31826;53.572;10.170;2022-11-20T04:11:17;6.90;;;3.00;;
46090;SDS011;31826;53.572;10.170;2022-11-20T04:13:48;8.32;;;3.13;;
46090;SDS011;31826;53.572;10.170;2022-11-20T04:16:16;7.28;;;3.05;;
46090;SDS011;31826;53.572;10.170;2022-11-20T04:18:42;6.15;;;3.03;;
46090;SDS011;31826;53.572;10.170;2022-11-20T04:21:08;7.72;;;2.88;;
46090;SDS011;31826;53.572;10.170;2022-11-20T04:23:34;7.80;;;3.10;;
46090;SDS011;31826;53.572;10.170;2022-11-20T04:26:09;5.30;;;2.77;;
46090;SDS011;31826;53.572;10.170;2022-11-20T04:28:36;7.78;;;3.00;;
46090;SDS011;31826;53.572;10.170;2022-11-20T04:31:07;7.25;;;3.08;;
46090;SDS011;31826;53.572;10.170;2022-11-20T04:33:34;7.57;;;3.20;;
46090;SDS011;31826;53.572;10.170;2022-11-20T04:36:05;7.40;;;3.07;;
46090;SDS011;31826;53.572;10.170;2022-11-20T04:38:33;8.52;;;3.00;;
46090;SDS011;31826;53.572;10.170;2022-11-20T04:40:59;5.70;;;2.60;;
46090;SDS011;31826;53.572;10.170;2022-11-20T04:43:26;9.50;;;3.25;;
46090;SDS011;31826;53.572;10.170;2022-11-20T04:45:55;5.43;;;2.67;;
46090;SDS011;31826;53.572;10.170;2022-11-20T04:48:22;6.60;;;2.75;;
46090;SDS011;31826;53.572;10.170;2022-11-20T04:50:48;7.57;;;3.10;;
46090;SDS011;31826;53.572;10.170;2022-11-20T04:53:14;5.13;;;2.72;;
46090;SDS011;31826;53.572;10.170;2022-11-20T04:55:39;7.22;;;3.20;;
46090;SDS011;31826;53.572;10.170;2022-11-20T04:58:05;8.23;;;2.70;;
46090;SDS011;31826;53.572;10.170;2022-11-20T05:00:31;8.40;;;3.05;;
46090;SDS011;31826;53.572;10.170;2022-11-20T05:02:57;6.87;;;3.13;;
46090;SDS011;31826;53.572;10.170;2022-11-20T05:05:23;5.97;;;3.50;;
46090;SDS011;31826;53.572;10.170;2022-11-20T05:07:49;7.97;;;3.33;;
46090;SDS011;31826;53.572;10.170;2022-11-20T05:10:14;5.80;;;3.03;;
46090;SDS011;31826;53.572;10.170;2022-11-20T05:12:40;7.23;;;3.37;;
46090;SDS011;31826;53.572;10.170;2022-11-20T05:15:06;5.78;;;2.78;;
46090;SDS011;31826;53.572;10.170;2022-11-20T05:17:32;7.63;;;3.20;;
46090;SDS011;31826;53.572;10.170;2022-11-20T05:19:58;7.65;;;3.72;;
46090;SDS011;31826;53.572;10.170;2022-11-20T05:22:24;7.00;;;2.88;;
46090;SDS011;31826;53.572;10.170;2022-11-20T05:24:49;6.45;;;2.80;;
46090;SDS011;31826;53.572;10.170;2022-11-20T05:27:15;6.40;;;2.88;;
46090;SDS011;31826;53.572;10.170;2022-11-20T05:29:41;6.50;;;3.03;;
46090;SDS011;31826;53.572;10.170;2022-11-20T05:32:06;7.57;;;3.20;;
46090;SDS011;31826;53.572;10.170;2022-11-20T05:34:34;9.07;;;3.22;;
46090;SDS011;31826;53.572;10.170;2022-11-20T05:37:00;7.50;;;3.05;;
46090;SDS011;31826;53.572;10.170;2022-11-20T05:39:27;6.95;;;3.00;;
46090;SDS011;31826;53.572;10.170;2022-11-20T05:41:53;11.65;;;3.40;;
46090;SDS011;31826;53.572;10.170;2022-11-20T05:44:38;5.63;;;3.03;;
46090;SDS011;31826;53.572;10.170;2022-11-20T05:47:04;13.52;;;3.30;;
46090;SDS011;31826;53.572;10.170;2022-11-20T05:49:30;6.55;;;3.15;;
46090;SDS011;31826;53.572;10.170;2022-11-20T05:51:56;9.80;;;3.30;;
46090;SDS011;31826;53.572;10.170;2022-11-20T05:54:22;4.50;;;2.70;;
46090;SDS011;31826;53.572;10.170;2022-11-20T05:56:48;6.70;;;2.63;;
46090;SDS011;31826;53.572;10.170;2022-11-20T05:59:13;6.63;;;2.80;;
46090;SDS011;31826;53.572;10.170;2022-11-20T06:01:39;6.77;;;3.13;;
46090;SDS011;31826;53.572;10.170;2022-11-20T06:04:05;6.73;;;2.90;;
46090;SDS011;31826;53.572;10.170;2022-11-20T06:06:30;6.90;;;3.17;;
46090;SDS011;31826;53.572;10.170;2022-11-20T06:08:56;6.55;;;3.03;;
46090;SDS011;31826;53.572;10.170;2022-11-20T06:11:24;6.70;;;2.90;;
46090;SDS011;31826;53.572;10.170;2022-11-20T06:13:50;7.88;;;3.45;;
46090;SDS011;31826;53.572;10.170;2022-11-20T06:16:17;7.13;;;3.13;;
46090;SDS011;31826;53.572;10.170;2022-11-20T06:18:45;7.22;;;3.33;;
46090;SDS011;31826;53.572;10.170;2022-11-20T06:21:15;7.25;;;3.42;;
46090;SDS011;31826;53.572;10.170;2022-11-20T06:23:43;6.60;;;3.30;;
46090;SDS011;31826;53.572;10.170;2022-11-20T06:26:10;8.20;;;3.67;;
46090;SDS011;31826;53.572;10.170;2022-11-20T06:28:43;8.40;;;4.43;;
46090;SDS011;31826;53.572;10.170;2022-11-20T06:31:10;7.55;;;3.28;;
46090;SDS011;31826;53.572;10.170;2022-11-20T06:33:38;6.55;;;3.50;;
46090;SDS011;31826;53.572;10.170;2022-11-20T06:36:04;6.57;;;3.20;;
46090;SDS011;31826;53.572;10.170;2022-11-20T06:38:30;9.67;;;3.53;;
46090;SDS011;31826;53.572;10.170;2022-11-20T06:40:56;6.90;;;3.42;;
46090;SDS011;31826;53.572;10.170;2022-11-20T06:43:22;7.80;;;3.85;;
46090;SDS011;31826;53.572;10.170;2022-11-20T06:45:55;10.05;;;3.92;;
46090;SDS011;31826;53.572;10.170;2022-11-20T06:48:22;8.82;;;3.85;;
46090;SDS011;31826;53.572;10.170;2022-11-20T06:50:48;8.50;;;3.90;;
46090;SDS011;31826;53.572;10.170;2022-11-20T06:53:14;8.93;;;4.00;;
46090;SDS011;31826;53.572;10.170;2022-11-20T06:55:43;10.55;;;4.72;;
46090;SDS011;31826;53.572;10.170;2022-11-20T06:58:10;10.27;;;4.97;;
46090;SDS011;31826;53.572;10.170;2022-11-20T07:00:37;10.10;;;4.40;;
46090;SDS011;31826;53.572;10.170;2022-11-20T07:03:03;10.75;;;4.80;;
46090;SDS011;31826;53.572;10.170;2022-11-20T07:05:29;11.90;;;5.22;;
46090;SDS011;31826;53.572;10.170;2022-11-20T07:07:55;14.70;;;5.47;;
46090;SDS011;31826;53.572;10.170;2022-11-20T07:10:22;12.20;;;5.40;;
46090;SDS011;31826;53.572;10.170;2022-11-20T07:12:51;10.00;;;5.10;;
46090;SDS011;31826;53.572;10.170;2022-11-20T07:15:18;10.13;;;4.95;;
46090;SDS011;31826;53.572;10.170;2022-11-20T07:17:46;11.05;;;5.35;;
46090;SDS011;31826;53.572;10.170;2022-11-20T07:20:12;9.80;;;4.78;;
46090;SDS011;31826;53.572;10.170;2022-11-20T07:22:38;9.88;;;4.43;;
46090;SDS011;31826;53.572;10.170;2022-11-20T07:25:04;9.07;;;4.80;;
46090;SDS011;31826;53.572;10.170;2022-11-20T07:27:30;10.13;;;4.93;;
46090;SDS011;31826;53.572;10.170;2022-11-20T07:29:56;8.57;;;4.30;;
46090;SDS011;31826;53.572;10.170;2022-11-20T07:32:22;8.70;;;3.90;;
46090;SDS011;31826;53.572;10.170;2022-11-20T07:34:48;10.82;;;4.50;;
46090;SDS011;31826;53.572;10.170;2022-11-20T07:37:14;9.10;;;4.18;;
46090;SDS011;31826;53.572;10.170;2022-11-20T07:39:40;9.15;;;4.05;;
46090;SDS011;31826;53.572;10.170;2022-11-20T07:42:06;8.38;;;4.20;;
46090;SDS011;31826;53.572;10.170;2022-11-20T07:44:32;8.35;;;3.95;;
46090;SDS011;31826;53.572;10.170;2022-11-20T07:46:58;9.15;;;3.90;;
46090;SDS011;31826;53.572;10.170;2022-11-20T07:49:24;8.65;;;3.72;;
46090;SDS011;31826;53.572;10.170;2022-11-20T07:51:50;8.43;;;4.05;;
46090;SDS011;31826;53.572;10.170;2022-11-20T07:54:18;6.90;;;3.53;;
46090;SDS011;31826;53.572;10.170;2022-11-20T07:56:44;7.22;;;3.38;;
46090;SDS011;31826;53.572;10.170;2022-11-20T07:59:09;9.70;;;3.85;;
46090;SDS011;31826;53.572;10.170;2022-11-20T08:01:37;7.60;;;3.50;;
46090;SDS011;31826;53.572;10.170;2022-11-20T08:04:03;7.90;;;3.15;;
46090;SDS011;31826;53.572;10.170;2022-11-20T08:06:29;9.07;;;3.60;;
46090;SDS011;31826;53.572;10.170;2022-11-20T08:08:55;8.20;;;3.85;;
46090;SDS011;31826;53.572;10.170;2022-11-20T08:11:20;8.15;;;3.75;;
46090;SDS011;31826;53.572;10.170;2022-11-20T08:14:04;7.75;;;3.60;;
46090;SDS011;31826;53.572;10.170;2022-11-20T08:16:48;9.15;;;4.20;;
46090;SDS011;31826;53.572;10.170;2022-11-20T08:19:15;9.07;;;4.33;;
46090;SDS011;31826;53.572;10.170;2022-11-20T08:21:42;7.45;;;3.80;;
46090;SDS011;31826;53.572;10.170;2022-11-20T08:24:08;8.60;;;3.78;;
46090;SDS011;31826;53.572;10.170;2022-11-20T08:26:35;8.82;;;4.15;;
46090;SDS011;31826;53.572;10.170;2022-11-20T08:29:02;11.23;;;4.00;;
46090;SDS011;31826;53.572;10.170;2022-11-20T08:31:28;7.00;;;3.63;;
46090;SDS011;31826;53.572;10.170;2022-11-20T08:33:54;9.35;;;4.07;;
46090;SDS011;31826;53.572;10.170;2022-11-20T08:36:21;8.70;;;3.80;;
46090;SDS011;31826;53.572;10.170;2022-11-20T08:38:48;7.80;;;3.80;;
46090;SDS011;31826;53.572;10.170;2022-11-20T08:41:15;7.03;;;3.53;;
46090;SDS011;31826;53.572;10.170;2022-11-20T08:43:54;8.88;;;4.03;;
46090;SDS011;31826;53.572;10.170;2022-11-20T08:46:25;8.50;;;3.47;;
46090;SDS011;31826;53.572;10.170;2022-11-20T08:48:52;9.00;;;3.85;;
46090;SDS011;31826;53.572;10.170;2022-11-20T08:51:19;9.00;;;3.65;;
46090;SDS011;31826;53.572;10.170;2022-11-20T08:53:45;7.97;;;3.50;;
46090;SDS011;31826;53.572;10.170;2022-11-20T08:56:13;6.93;;;3.33;;
46090;SDS011;31826;53.572;10.170;2022-11-20T08:58:39;9.63;;;3.40;;
46090;SDS011;31826;53.572;10.170;2022-11-20T09:01:05;7.40;;;3.38;;
46090;SDS011;31826;53.572;10.170;2022-11-20T09:03:31;7.97;;;3.30;;
46090;SDS011;31826;53.572;10.170;2022-11-20T09:06:01;9.75;;;3.33;;
46090;SDS011;31826;53.572;10.170;2022-11-20T09:08:29;8.07;;;3.70;;
46090;SDS011;31826;53.572;10.170;2022-11-20T09:10:56;8.10;;;3.58;;
46090;SDS011;31826;53.572;10.170;2022-11-20T09:13:22;7.72;;;3.15;;
46090;SDS011;31826;53.572;10.170;2022-11-20T09:15:53;8.30;;;3.72;;
46090;SDS011;31826;53.572;10.170;2022-11-20T09:18:20;7.90;;;3.70;;
46090;SDS011;31826;53.572;10.170;2022-11-20T09:20:45;8.80;;;3.72;;
46090;SDS011;31826;53.572;10.170;2022-11-20T09:23:11;8.80;;;3.75;;
46090;SDS011;31826;53.572;10.170;2022-11-20T09:25:37;6.75;;;3.25;;
46090;SDS011;31826;53.572;10.170;2022-11-20T09:28:02;7.78;;;3.28;;
46090;SDS011;31826;53.572;10.170;2022-11-20T09:30:28;6.38;;;3.28;;
46090;SDS011;31826;53.572;10.170;2022-11-20T09:32:54;5.75;;;3.00;;
46090;SDS011;31826;53.572;10.170;2022-11-20T09:35:20;5.82;;;2.83;;
46090;SDS011;31826;53.572;10.170;2022-11-20T09:37:45;7.80;;;3.67;;
46090;SDS011;31826;53.572;10.170;2022-11-20T09:40:21;8.00;;;3.00;;
46090;SDS011;31826;53.572;10.170;2022-11-20T09:56:15;7.93;;;3.70;;
46090;SDS011;31826;53.572;10.170;2022-11-20T09:58:48;7.47;;;3.50;;
46090;SDS011;31826;53.572;10.170;2022-11-20T10:01:17;8.43;;;3.97;;
46090;SDS011;31826;53.572;10.170;2022-11-20T10:03:53;7.90;;;3.40;;
46090;SDS011;31826;53.572;10.170;2022-11-20T10:06:32;7.75;;;3.55;;
46090;SDS011;31826;53.572;10.170;2022-11-20T10:09:25;6.80;;;3.50;;
46090;SDS011;31826;53.572;10.170;2022-11-20T10:11:56;7.55;;;3.70;;
46090;SDS011;31826;53.572;10.170;2022-11-20T10:20:12;6.28;;;3.08;;
46090;SDS011;31826;53.572;10.170;2022-11-20T10:25:20;6.05;;;3.00;;
46090;SDS011;31826;53.572;10.170;2022-11-20T10:30:21;5.82;;;2.90;;
46090;SDS011;31826;53.572;10.170;2022-11-20T10:32:51;6.60;;;3.42;;
46090;SDS011;31826;53.572;10.170;2022-11-20T10:35:22;6.35;;;3.30;;
46090;SDS011;31826;53.572;10.170;2022-11-20T10:38:00;6.72;;;3.17;;
46090;SDS011;31826;53.572;10.170;2022-11-20T10:40:31;7.03;;;3.50;;
46090;SDS011;31826;53.572;10.170;2022-11-20T10:46:03;7.05;;;3.40;;
46090;SDS011;31826;53.572;10.170;2022-11-20T10:48:34;7.20;;;3.45;;
46090;SDS011;31826;53.572;10.170;2022-11-20T11:01:48;4.15;;;2.28;;
46090;SDS011;31826;53.572;10.170;2022-11-20T11:07:22;5.47;;;2.90;;
46090;SDS011;31826;53.572;10.170;2022-11-20T11:10:16;5.75;;;2.85;;
46090;SDS011;31826;53.572;10.170;2022-11-20T11:12:46;5.80;;;2.88;;
46090;SDS011;31826;53.572;10.170;2022-11-20T11:15:26;5.10;;;2.70;;
46090;SDS011;31826;53.572;10.170;2022-11-20T11:18:03;5.07;;;2.77;;
46090;SDS011;31826;53.572;10.170;2022-11-20T11:20:29;5.50;;;2.70;;
46090;SDS011;31826;53.572;10.170;2022-11-20T11:22:57;7.50;;;3.15;;
46090;SDS011;31826;53.572;10.170;2022-11-20T11:28:20;8.80;;;4.10;;
46090;SDS011;31826;53.572;10.170;2022-11-20T11:30:46;7.18;;;3.42;;
46090;SDS011;31826;53.572;10.170;2022-11-20T11:36:16;7.80;;;3.60;;
46090;SDS011;31826;53.572;10.170;2022-11-20T11:38:48;4.78;;;2.60;;
46090;SDS011;31826;53.572;10.170;2022-11-20T11:41:22;6.65;;;2.70;;
46090;SDS011;31826;53.572;10.170;2022-11-20T11:43:56;7.53;;;3.57;;
46090;SDS011;31826;53.572;10.170;2022-11-20T11:46:54;7.70;;;3.37;;
46090;SDS011;31826;53.572;10.170;2022-11-20T11:49:21;5.45;;;2.80;;
46090;SDS011;31826;53.572;10.170;2022-11-20T12:02:41;5.68;;;2.60;;
46090;SDS011;31826;53.572;10.170;2022-11-20T12:10:14;3.53;;;2.10;;
46090;SDS011;31826;53.572;10.170;2022-11-20T12:12:44;5.83;;;2.23;;
46090;SDS011;31826;53.572;10.170;2022-11-20T12:15:26;4.10;;;2.28;;
46090;SDS011;31826;53.572;10.170;2022-11-20T12:17:55;4.93;;;2.70;;
46090;SDS011;31826;53.572;10.170;2022-11-20T12:20:22;5.05;;;2.20;;
46090;SDS011;31826;53.572;10.170;2022-11-20T12:23:23;5.60;;;2.00;;
46090;SDS011;31826;53.572;10.170;2022-11-20T12:25:47;6.03;;;2.35;;
46090;SDS011;31826;53.572;10.170;2022-11-20T12:28:22;5.20;;;2.38;;
46090;SDS011;31826;53.572;10.170;2022-11-20T12:37:02;6.20;;;2.88;;
46090;SDS011;31826;53.572;10.170;2022-11-20T12:39:48;4.75;;;2.20;;
46090;SDS011;31826;53.572;10.170;2022-11-20T13:07:05;5.55;;;2.70;;
46090;SDS011;31826;53.572;10.170;2022-11-20T13:09:33;3.45;;;2.10;;
46090;SDS011;31826;53.572;10.170;2022-11-20T13:17:54;3.17;;;1.73;;
46090;SDS011;31826;53.572;10.170;2022-11-20T13:20:23;4.57;;;2.00;;
46090;SDS011;31826;53.572;10.170;2022-11-20T13:22:50;5.80;;;2.63;;
46090;SDS011;31826;53.572;10.170;2022-11-20T13:27:54;3.88;;;2.40;;
46090;SDS011;31826;53.572;10.170;2022-11-20T13:30:24;4.37;;;2.27;;
46090;SDS011;31826;53.572;10.170;2022-11-20T13:32:53;4.13;;;2.42;;
46090;SDS011;31826;53.572;10.170;2022-11-20T13:35:31;3.15;;;2.10;;
46090;SDS011;31826;53.572;10.170;2022-11-20T13:38:06;6.00;;;2.90;;
46090;SDS011;31826;53.572;10.170;2022-11-20T13:40:37;5.88;;;3.00;;
46090;SDS011;31826;53.572;10.170;2022-11-20T13:43:10;5.85;;;3.20;;
46090;SDS011;31826;53.572;10.170;2022-11-20T13:46:02;5.83;;;2.90;;
46090;SDS011;31826;53.572;10.170;2022-11-20T13:48:34;8.23;;;3.50;;
46090;SDS011;31826;53.572;10.170;2022-11-20T14:02:19;7.07;;;3.10;;
46090;SDS011;31826;53.572;10.170;2022-11-20T14:04:47;5.72;;;2.80;;
46090;SDS011;31826;53.572;10.170;2022-11-20T14:07:15;7.68;;;3.00;;
46090;SDS011;31826;53.572;10.170;2022-11-20T14:09:51;6.63;;;3.05;;
46090;SDS011;31826;53.572;10.170;2022-11-20T14:12:19;6.15;;;2.95;;
46090;SDS011;31826;53.572;10.170;2022-11-20T14:14:51;6.68;;;2.78;;
46090;SDS011;31826;53.572;10.170;2022-11-20T14:19:45;5.80;;;2.90;;
46090;SDS011;31826;53.572;10.170;2022-11-20T14:22:20;4.25;;;2.30;;
46090;SDS011;31826;53.572;10.170;2022-11-20T14:24:48;5.05;;;2.85;;
46090;SDS011;31826;53.572;10.170;2022-11-20T14:27:25;6.53;;;2.90;;
46090;SDS011;31826;53.572;10.170;2022-11-20T14:29:51;7.90;;;3.20;;
46090;SDS011;31826;53.572;10.170;2022-11-20T14:32:18;7.10;;;3.30;;
46090;SDS011;31826;53.572;10.170;2022-11-20T14:34:47;6.57;;;3.20;;
46090;SDS011;31826;53.572;10.170;2022-11-20T14:37:19;6.40;;;2.67;;
46090;SDS011;31826;53.572;10.170;2022-11-20T14:39:49;5.50;;;2.53;;
46090;SDS011;31826;53.572;10.170;2022-11-20T14:42:19;4.90;;;2.38;;
46090;SDS011;31826;53.572;10.170;2022-11-20T14:44:50;11.95;;;5.03;;
46090;SDS011;31826;53.572;10.170;2022-11-20T14:47:21;5.68;;;2.60;;
46090;SDS011;31826;53.572;10.170;2022-11-20T14:49:49;4.10;;;2.42;;
46090;SDS011;31826;53.572;10.170;2022-11-20T14:52:18;3.60;;;2.13;;
46090;SDS011;31826;53.572;10.170;2022-11-20T14:54:47;4.00;;;2.53;;
46090;SDS011;31826;53.572;10.170;2022-11-20T14:57:34;3.85;;;1.90;;
46090;SDS011;31826;53.572;10.170;2022-11-20T15:00:04;3.70;;;2.17;;
46090;SDS011;31826;53.572;10.170;2022-11-20T15:02:34;6.45;;;2.47;;
46090;SDS011;31826;53.572;10.170;2022-11-20T15:05:03;5.55;;;2.60;;
46090;SDS011;31826;53.572;10.170;2022-11-20T15:07:33;5.80;;;2.55;;
46090;SDS011;31826;53.572;10.170;2022-11-20T15:12:31;3.63;;;2.25;;
46090;SDS011;31826;53.572;10.170;2022-11-20T15:15:00;4.60;;;2.15;;
46090;SDS011;31826;53.572;10.170;2022-11-20T15:17:28;5.82;;;2.60;;
46090;SDS011;31826;53.572;10.170;2022-11-20T15:19:54;3.90;;;2.53;;
46090;SDS011;31826;53.572;10.170;2022-11-20T15:22:20;5.53;;;2.53;;
46090;SDS011;31826;53.572;10.170;2022-11-20T15:24:46;5.27;;;2.60;;
46090;SDS011;31826;53.572;10.170;2022-11-20T15:27:12;5.67;;;2.63;;
46090;SDS011;31826;53.572;10.170;2022-11-20T15:29:38;5.50;;;2.92;;
46090;SDS011;31826;53.572;10.170;2022-11-20T15:32:03;10.27;;;4.03;;
46090;SDS011;31826;53.572;10.170;2022-11-20T15:34:29;7.40;;;3.55;;
46090;SDS011;31826;53.572;10.170;2022-11-20T15:36:55;5.00;;;2.60;;
46090;SDS011;31826;53.572;10.170;2022-11-20T15:39:21;11.70;;;5.67;;
46090;SDS011;31826;53.572;10.170;2022-11-20T15:41:47;16.17;;;6.43;;
46090;SDS011;31826;53.572;10.170;2022-11-20T15:44:12;6.13;;;3.23;;
46090;SDS011;31826;53.572;10.170;2022-11-20T15:46:39;6.63;;;3.13;;
46090;SDS011;31826;53.572;10.170;2022-11-20T15:49:13;6.93;;;3.03;;
46090;SDS011;31826;53.572;10.170;2022-11-20T15:51:44;8.30;;;3.53;;
46090;SDS011;31826;53.572;10.170;2022-11-20T15:54:16;10.10;;;4.32;;
46090;SDS011;31826;53.572;10.170;2022-11-20T15:56:45;11.63;;;5.25;;
46090;SDS011;31826;53.572;10.170;2022-11-20T15:59:11;9.15;;;3.90;;
46090;SDS011;31826;53.572;10.170;2022-11-20T16:01:39;8.65;;;3.20;;
46090;SDS011;31826;53.572;10.170;2022-11-20T16:04:15;6.80;;;3.00;;
46090;SDS011;31826;53.572;10.170;2022-11-20T16:06:42;5.53;;;2.95;;
46090;SDS011;31826;53.572;10.170;2022-11-20T16:09:08;5.43;;;2.90;;
46090;SDS011;31826;53.572;10.170;2022-11-20T16:11:34;5.73;;;2.90;;
46090;SDS011;31826;53.572;10.170;2022-11-20T16:14:04;7.47;;;3.05;;
46090;SDS011;31826;53.572;10.170;2022-11-20T16:16:49;6.70;;;3.22;;
46090;SDS011;31826;53.572;10.170;2022-11-20T16:19:14;5.28;;;3.00;;
46090;SDS011;31826;53.572;10.170;2022-11-20T16:21:41;7.45;;;3.25;;
46090;SDS011;31826;53.572;10.170;2022-11-20T16:24:08;8.63;;;3.40;;
46090;SDS011;31826;53.572;10.170;2022-11-20T16:26:36;5.65;;;3.10;;
46090;SDS011;31826;53.572;10.170;2022-11-20T16:29:02;7.70;;;3.30;;
46090;SDS011;31826;53.572;10.170;2022-11-20T16:31:30;7.32;;;2.95;;
46090;SDS011;31826;53.572;10.170;2022-11-20T16:33:57;5.97;;;2.88;;
46090;SDS011;31826;53.572;10.170;2022-11-20T16:36:25;6.13;;;2.65;;
46090;SDS011;31826;53.572;10.170;2022-11-20T16:38:59;4.80;;;2.45;;
46090;SDS011;31826;53.572;10.170;2022-11-20T16:41:26;6.03;;;2.63;;
46090;SDS011;31826;53.572;10.170;2022-11-20T16:43:55;5.22;;;2.40;;
46090;SDS011;31826;53.572;10.170;2022-11-20T16:46:22;5.32;;;2.70;;
46090;SDS011;31826;53.572;10.170;2022-11-20T16:48:53;5.10;;;2.93;;
46090;SDS011;31826;53.572;10.170;2022-11-20T16:51:20;5.27;;;2.67;;